Herington, KS (67449)

8:50 PM CST on February 07, 2016 (GMT -0600)
Pearl | | Change Station
CLOSE
Current Station
Personal Weather Station
Location: Chapman, KS
Elevation: 1299 ft
Nearby Weather Stations
Active Advisory: Wind Advisory

Elev 1299 ft 38.84 °N, 97.03 °W | Updated 3 minutes ago

Partly Cloudy
Partly Cloudy
34.7 °F
Feels Like 27 °F
N
9.4
Wind Variable Wind from West

Today
High -- | Low -- °F
--% Chance of Precip.
Yesterday
High -- | Low -- °F
Precip. -- in
Pressure 30.13 in
Visibility 10.0 miles
Clouds Scattered Clouds 7000 ft
Mostly Cloudy 9500 ft
Windchill 27 °F
Dew Point 24 °F
Humidity 66%
Rainfall 0.00 in
Snow Depth Not available.
7:28 AM 5:56 PM
Waning Crescent, 0% visible
METAR KFRI 080158Z AUTO 29007G15KT 10SM SCT070 BKN095 05/M07 A3011 RMK AO2 SLP203 T00541071
Pressure 30.13 in
Visibility 10.0 miles
Clouds Scattered Clouds 7000 ft
Mostly Cloudy 9500 ft
Windchill 27 °F
Dew Point 24 °F
Humidity 66%
Rainfall 0.00 in
Snow Depth Not available.
7:28 AM 5:56 PM
Waning Crescent, 0% visible
METAR KFRI 080158Z AUTO 29007G15KT 10SM SCT070 BKN095 05/M07 A3011 RMK AO2 SLP203 T00541071

10-Day Weather Forecast

Almanac

Astronomy

Feb. 07, 2016 Rise Set
Actual Time
Civil Twilight
Nautical Twilight
Astronomical Twilight
Moon
Length of Visible Light
Length of Day
Tomorrow will be .
, % of the Moon is Illuminated

Today's Extremes

State Highs State Lows

Community

WunderPhotos

Upload Photos

1,891,373 photos uploaded!

WunderBlog® & News

Nearby

Air Quality

  Air Quality AQ Index Pollutant
Not available.

Snow Depth

Station Depth Elevation

Earthquake Activity

City Distance Mag. Time & Date
Minimum magnitude displayed is 2.5.

Coastal Water Temperatures

Place Temperature

Stations

Nearby Weather Stations

Station Location Temp. Windchill Dew Point Humidity Wind Precip. Elev Updated Type
                   

Watches & Warnings

Wind Advisory
Issued: 6:05 PM CST Feb. 7, 2016 – National Weather Service

... Wind Advisory remains in effect from 8 am to 6 PM CST Monday...

* timing... wind speeds will increase shortly after sunrise Monday
and remain strong through the late afternoon.

* Winds... northwest winds will be sustained from 25 to 35 mph
with gusts around 45 mph.

* Impacts... loose and lightweight objects may be blown around by
the wind. Motorists should keep both hands on the steering
wheel. Light snow or flurries are also possible Monday... and
this wind would combine with any falling snow to create
greatly reduced and quickly changing visibilities.

Precautionary/preparedness actions...

A Wind Advisory means that sustained winds of 30 mph or gusts to
45 mph are expected. Winds this strong can make driving
difficult... especially for high profile vehicles. Use extra
caution.